Time;durP1;ratioP1;P1;durP2;ratioP2;P2;SDS_P1;SDS_P2;PMS_P1;PMS_P2;Temp;Humidity;BMP_temperature;BMP_pressure;BME280_temperature;BME280_humidity;BME280_pressure;Samples;Min_cycle;Max_cycle;Signal;HPM_P1;HPM_P2
2023/01/23 00:01:57;0.00;0.00;0.62;0.00;0.00;0.62;3.13;2.57;;;20.50;23.50;;;;;;2254828;61;20440;-63
2023/01/23 00:04:42;0.00;0.00;0.62;0.00;0.00;0.62;3.73;3.00;;;20.50;23.50;;;;;;2255250;61;20382;-64
2023/01/23 00:07:27;0.00;0.00;0.62;0.00;0.00;0.62;4.50;3.73;;;20.50;23.50;;;;;;2254866;61;20473;-64
2023/01/23 00:10:12;0.00;0.00;0.62;0.00;0.00;0.62;4.40;3.00;;;20.40;23.40;;;;;;2255278;61;20378;-61
2023/01/23 00:12:56;0.00;0.00;0.62;0.00;0.00;0.62;5.13;3.40;;;20.40;23.40;;;;;;2484914;53;20375;-63
2023/01/23 00:15:42;0.00;0.00;0.62;0.00;0.00;0.62;4.20;2.97;;;20.40;23.40;;;;;;2251449;61;20447;-65
2023/01/23 00:18:28;0.00;0.00;0.62;0.00;0.00;0.62;5.03;3.50;;;20.40;23.40;;;;;;2250838;61;20358;-63
2023/01/23 00:21:17;0.00;0.00;0.62;0.00;0.00;0.62;5.20;3.47;;;20.40;23.40;;;;;;2250224;61;20464;-64
2023/01/23 00:24:01;0.00;0.00;0.62;0.00;0.00;0.62;4.70;3.60;;;20.40;23.40;;;;;;2276345;61;20421;-65
2023/01/23 00:26:46;0.00;0.00;0.62;0.00;0.00;0.62;3.50;3.20;;;20.40;23.40;;;;;;2254763;61;20388;-59
2023/01/23 00:29:31;0.00;0.00;0.62;0.00;0.00;0.62;3.70;2.90;;;20.40;23.90;;;;;;2255070;61;20398;-68
2023/01/23 00:32:15;0.00;0.00;0.62;0.00;0.00;0.62;4.17;3.50;;;20.40;23.40;;;;;;2254139;61;20840;-64
2023/01/23 00:35:05;0.00;0.00;0.62;0.00;0.00;0.62;4.33;3.13;;;20.40;23.40;;;;;;2253921;61;20842;-65
2023/01/23 00:37:51;0.00;0.00;0.62;0.00;0.00;0.62;4.20;3.30;;;20.30;23.30;;;;;;2255083;61;20366;-62
2023/01/23 00:40:39;0.00;0.00;0.62;0.00;0.00;0.62;4.37;3.53;;;20.30;23.30;;;;;;2254434;61;21264;-65
2023/01/23 00:43:25;0.00;0.00;0.62;0.00;0.00;0.62;3.87;3.40;;;20.30;23.30;;;;;;2254295;61;20408;-63
2023/01/23 00:46:09;0.00;0.00;0.62;0.00;0.00;0.62;4.87;3.90;;;20.30;23.30;;;;;;2253860;61;20934;-62
2023/01/23 00:48:54;0.00;0.00;0.62;0.00;0.00;0.62;3.90;3.30;;;20.30;23.30;;;;;;2255331;61;20401;-64
2023/01/23 00:51:40;0.00;0.00;0.62;0.00;0.00;0.62;5.00;3.77;;;20.30;23.30;;;;;;2254279;61;20787;-63
2023/01/23 00:54:25;0.00;0.00;0.62;0.00;0.00;0.62;5.43;3.90;;;20.30;23.30;;;;;;2254240;61;20996;-64
2023/01/23 00:57:10;0.00;0.00;0.62;0.00;0.00;0.62;4.30;3.60;;;20.30;23.30;;;;;;2254124;61;20405;-65
2023/01/23 00:59:54;0.00;0.00;0.62;0.00;0.00;0.62;4.83;4.20;;;20.30;23.30;;;;;;2254729;61;20512;-64
2023/01/23 01:02:40;0.00;0.00;0.62;0.00;0.00;0.62;4.80;4.20;;;20.20;23.30;;;;;;2254601;61;20409;-65
2023/01/23 01:05:25;0.00;0.00;0.62;0.00;0.00;0.62;6.60;3.50;;;20.20;23.30;;;;;;2254848;61;20385;-64
2023/01/23 01:08:11;0.00;0.00;0.62;0.00;0.00;0.62;3.83;3.40;;;20.20;23.20;;;;;;2255080;61;20496;-66
2023/01/23 01:10:56;0.00;0.00;0.62;0.00;0.00;0.62;3.33;3.00;;;20.20;23.30;;;;;;2256955;61;20368;-63
2023/01/23 01:13:43;0.00;0.00;0.62;0.00;0.00;0.62;4.90;3.87;;;20.20;23.30;;;;;;2258492;61;20364;-64
2023/01/23 01:16:28;0.00;0.00;0.62;0.00;0.00;0.62;3.90;3.20;;;20.20;23.30;;;;;;2259478;61;20749;-64
2023/01/23 01:19:13;0.00;0.00;0.62;0.00;0.00;0.62;4.83;3.80;;;20.20;23.30;;;;;;2258912;61;20973;-66
2023/01/23 01:21:59;0.00;0.00;0.62;0.00;0.00;0.62;6.30;4.10;;;20.20;23.30;;;;;;2258537;61;20803;-63
2023/01/23 01:24:45;0.00;0.00;0.62;0.00;0.00;0.62;4.10;3.70;;;20.10;23.20;;;;;;2255166;61;20470;-64
2023/01/23 01:27:30;0.00;0.00;0.62;0.00;0.00;0.62;3.67;3.20;;;20.20;23.30;;;;;;2254840;61;20827;-64
2023/01/23 01:30:16;0.00;0.00;0.62;0.00;0.00;0.62;5.37;3.80;;;20.20;23.30;;;;;;2255450;61;20951;-64
2023/01/23 01:33:01;0.00;0.00;0.62;0.00;0.00;0.62;5.63;3.67;;;20.10;23.30;;;;;;2255807;61;20760;-64
2023/01/23 01:35:46;0.00;0.00;0.62;0.00;0.00;0.62;5.60;3.97;;;20.10;23.30;;;;;;2254727;61;20428;-64
2023/01/23 01:38:30;0.00;0.00;0.62;0.00;0.00;0.62;4.53;3.23;;;20.10;23.30;;;;;;2255560;61;20413;-64
2023/01/23 01:41:17;0.00;0.00;0.62;0.00;0.00;0.62;3.20;2.70;;;20.10;23.30;;;;;;2254608;61;20401;-63
2023/01/23 01:44:02;0.00;0.00;0.62;0.00;0.00;0.62;4.40;3.37;;;20.10;23.30;;;;;;2255702;61;20369;-63
2023/01/23 01:46:48;0.00;0.00;0.62;0.00;0.00;0.62;4.80;3.60;;;20.10;23.30;;;;;;2254967;61;20397;-63
2023/01/23 01:49:34;0.00;0.00;0.62;0.00;0.00;0.62;5.20;3.80;;;20.10;23.30;;;;;;2254358;61;20450;-62
2023/01/23 01:52:20;0.00;0.00;0.62;0.00;0.00;0.62;5.90;4.10;;;20.10;23.30;;;;;;2254852;61;20354;-64
2023/01/23 01:55:07;0.00;0.00;0.62;0.00;0.00;0.62;4.93;3.57;;;20.10;23.30;;;;;;2255635;61;20432;-64
2023/01/23 01:57:53;0.00;0.00;0.62;0.00;0.00;0.62;4.37;3.40;;;20.00;23.30;;;;;;2254353;61;20370;-68
2023/01/23 02:00:39;0.00;0.00;0.62;0.00;0.00;0.62;4.50;3.70;;;20.00;23.20;;;;;;2254844;61;20424;-63
2023/01/23 02:03:25;0.00;0.00;0.62;0.00;0.00;0.62;4.90;3.90;;;20.00;23.30;;;;;;2254780;61;20893;-63
2023/01/23 02:06:11;0.00;0.00;0.62;0.00;0.00;0.62;4.27;3.37;;;20.00;23.30;;;;;;2255042;61;20423;-64
2023/01/23 02:09:02;0.00;0.00;0.62;0.00;0.00;0.62;4.23;3.50;;;20.00;23.30;;;;;;2254752;61;20782;-63
2023/01/23 02:11:48;0.00;0.00;0.62;0.00;0.00;0.62;6.43;3.33;;;20.00;23.30;;;;;;2254633;61;21258;-63
2023/01/23 02:14:37;0.00;0.00;0.62;0.00;0.00;0.62;6.50;3.90;;;20.00;23.30;;;;;;2254605;61;20377;-63
2023/01/23 02:17:23;0.00;0.00;0.62;0.00;0.00;0.62;6.00;3.43;;;20.00;23.30;;;;;;2255192;61;20366;-64
2023/01/23 02:20:14;0.00;0.00;0.62;0.00;0.00;0.62;4.87;3.80;;;20.00;23.40;;;;;;2254896;61;20367;-62
2023/01/23 02:23:06;0.00;0.00;0.62;0.00;0.00;0.62;6.53;4.07;;;20.00;23.40;;;;;;2255141;61;20494;-62
2023/01/23 02:26:00;0.00;0.00;0.62;0.00;0.00;0.62;4.57;3.80;;;20.00;23.30;;;;;;2254873;61;20921;-67
2023/01/23 02:28:50;0.00;0.00;0.62;0.00;0.00;0.62;6.40;3.90;;;19.90;23.30;;;;;;2255147;61;20362;-62
2023/01/23 02:31:41;0.00;0.00;0.62;0.00;0.00;0.62;5.00;3.50;;;19.90;23.30;;;;;;2255032;61;20905;-62
2023/01/23 02:34:27;0.00;0.00;0.62;0.00;0.00;0.62;4.87;4.07;;;19.90;23.30;;;;;;2254367;61;20488;-61
2023/01/23 02:37:17;0.00;0.00;0.62;0.00;0.00;0.62;4.63;3.70;;;19.90;23.30;;;;;;2254383;61;20925;-62
2023/01/23 02:40:03;0.00;0.00;0.62;0.00;0.00;0.62;4.60;3.90;;;19.90;23.30;;;;;;2255220;61;20361;-59
2023/01/23 02:42:54;0.00;0.00;0.62;0.00;0.00;0.62;4.33;3.50;;;19.90;23.30;;;;;;2254794;61;20393;-63
2023/01/23 02:45:39;0.00;0.00;0.62;0.00;0.00;0.62;5.13;3.50;;;19.90;23.30;;;;;;2254694;61;20438;-64
2023/01/23 02:48:25;0.00;0.00;0.62;0.00;0.00;0.62;4.30;3.37;;;19.90;23.30;;;;;;2254702;61;20456;-62
2023/01/23 02:51:10;0.00;0.00;0.62;0.00;0.00;0.62;4.60;3.77;;;19.80;23.20;;;;;;2254861;61;20382;-63
2023/01/23 02:53:55;0.00;0.00;0.62;0.00;0.00;0.62;5.30;3.50;;;19.90;23.30;;;;;;2255194;61;20361;-64
2023/01/23 02:56:41;0.00;0.00;0.62;0.00;0.00;0.62;7.10;3.80;;;19.80;23.30;;;;;;2253985;61;20361;-63
2023/01/23 03:02:30;0.00;0.00;0.62;0.00;0.00;0.62;4.80;3.50;;;19.90;23.30;;;;;;2254404;61;20468;-63
2023/01/23 03:05:15;0.00;0.00;0.62;0.00;0.00;0.62;5.03;3.70;;;19.80;23.30;;;;;;2254998;61;20409;-63
2023/01/23 03:08:00;0.00;0.00;0.62;0.00;0.00;0.62;4.73;3.20;;;19.80;23.30;;;;;;2254993;61;20389;-63
2023/01/23 03:10:45;0.00;0.00;0.62;0.00;0.00;0.62;4.83;3.40;;;19.80;23.30;;;;;;2254222;61;20764;-62
2023/01/23 03:13:31;0.00;0.00;0.62;0.00;0.00;0.62;6.13;3.30;;;19.80;23.30;;;;;;2255114;61;20366;-64
2023/01/23 03:16:17;0.00;0.00;0.62;0.00;0.00;0.62;5.17;3.83;;;19.80;23.30;;;;;;2254988;61;20922;-64
2023/01/23 03:19:07;0.00;0.00;0.62;0.00;0.00;0.62;9.53;4.43;;;19.80;23.30;;;;;;2254871;61;20495;-63
2023/01/23 03:21:53;0.00;0.00;0.62;0.00;0.00;0.62;6.03;4.13;;;19.80;23.30;;;;;;2256898;61;20470;-64
2023/01/23 03:24:38;0.00;0.00;0.62;0.00;0.00;0.62;5.57;4.43;;;19.80;23.30;;;;;;2258020;61;20396;-63
2023/01/23 03:27:23;0.00;0.00;0.62;0.00;0.00;0.62;7.20;3.73;;;19.80;23.30;;;;;;2257197;61;20425;-64
2023/01/23 03:30:19;0.00;0.00;0.62;0.00;0.00;0.62;5.10;3.50;;;19.80;23.30;;;;;;2257158;61;20377;-63
2023/01/23 03:33:05;0.00;0.00;0.62;0.00;0.00;0.62;5.30;3.87;;;19.80;23.30;;;;;;2256395;61;20393;-62
2023/01/23 03:35:50;0.00;0.00;0.62;0.00;0.00;0.62;4.63;3.40;;;19.70;23.30;;;;;;2257157;61;20432;-64
2023/01/23 03:38:36;0.00;0.00;0.62;0.00;0.00;0.62;6.77;3.90;;;19.80;23.40;;;;;;2258001;61;20761;-64
2023/01/23 03:41:25;0.00;0.00;0.62;0.00;0.00;0.62;6.80;3.87;;;19.70;23.30;;;;;;2256419;61;20464;-63
2023/01/23 03:44:11;0.00;0.00;0.62;0.00;0.00;0.62;6.30;3.80;;;19.70;23.30;;;;;;2257747;61;20920;-64
2023/01/23 03:46:57;0.00;0.00;0.62;0.00;0.00;0.62;8.57;3.63;;;19.70;23.30;;;;;;2256363;61;20412;-65
2023/01/23 03:49:44;0.00;0.00;0.62;0.00;0.00;0.62;6.40;4.37;;;19.70;23.30;;;;;;2257514;61;20450;-64
2023/01/23 03:52:29;0.00;0.00;0.62;0.00;0.00;0.62;4.83;3.80;;;19.70;23.40;;;;;;2257190;61;20362;-64
2023/01/23 03:55:15;0.00;0.00;0.62;0.00;0.00;0.62;5.60;3.37;;;19.70;23.80;;;;;;2256801;61;20408;-65
2023/01/23 03:58:02;0.00;0.00;0.62;0.00;0.00;0.62;6.67;3.90;;;19.70;23.30;;;;;;2257129;61;20520;-67
2023/01/23 04:00:49;0.00;0.00;0.62;0.00;0.00;0.62;4.70;3.37;;;19.70;23.30;;;;;;2257067;61;20893;-62
2023/01/23 04:03:34;0.00;0.00;0.62;0.00;0.00;0.62;7.27;4.23;;;19.70;23.30;;;;;;2256287;61;20432;-71
2023/01/23 04:06:19;0.00;0.00;0.62;0.00;0.00;0.62;6.23;4.63;;;19.70;23.30;;;;;;2256477;61;20425;-65
2023/01/23 04:09:06;0.00;0.00;0.62;0.00;0.00;0.62;4.70;3.90;;;19.70;23.30;;;;;;2256714;61;20455;-64
2023/01/23 04:11:51;0.00;0.00;0.62;0.00;0.00;0.62;7.33;3.63;;;19.70;23.40;;;;;;2257225;61;20385;-65
2023/01/23 04:14:36;0.00;0.00;0.62;0.00;0.00;0.62;6.10;4.47;;;19.70;23.30;;;;;;2256335;61;20381;-67
2023/01/23 04:17:22;0.00;0.00;0.62;0.00;0.00;0.62;4.90;3.50;;;19.70;23.40;;;;;;2255828;61;20493;-65
2023/01/23 04:20:09;0.00;0.00;0.62;0.00;0.00;0.62;7.03;4.30;;;19.70;23.30;;;;;;2257381;61;20946;-64
2023/01/23 04:22:57;0.00;0.00;0.62;0.00;0.00;0.62;4.50;3.40;;;19.70;23.40;;;;;;2257837;61;20393;-65
2023/01/23 04:25:42;0.00;0.00;0.62;0.00;0.00;0.62;5.57;3.83;;;19.70;23.40;;;;;;2257651;61;20390;-65
2023/01/23 04:28:31;0.00;0.00;0.62;0.00;0.00;0.62;5.33;3.90;;;19.70;23.30;;;;;;2257978;61;20365;-63
2023/01/23 04:31:16;0.00;0.00;0.62;0.00;0.00;0.62;5.20;3.70;;;19.60;23.30;;;;;;2257346;61;20409;-62
2023/01/23 04:34:01;0.00;0.00;0.62;0.00;0.00;0.62;6.43;4.30;;;19.60;23.30;;;;;;2257876;61;20382;-63
2023/01/23 04:36:46;0.00;0.00;0.62;0.00;0.00;0.62;5.97;3.70;;;19.60;23.30;;;;;;2257237;61;20449;-64
2023/01/23 04:39:32;0.00;0.00;0.62;0.00;0.00;0.62;5.00;3.93;;;19.60;23.30;;;;;;2257054;61;20366;-63
2023/01/23 04:42:18;0.00;0.00;0.62;0.00;0.00;0.62;4.00;3.20;;;19.60;23.30;;;;;;2257827;61;20400;-67
2023/01/23 04:45:25;0.00;0.00;0.62;0.00;0.00;0.62;7.20;3.90;;;19.60;23.30;;;;;;2257650;61;20922;-65
2023/01/23 04:48:24;0.00;0.00;0.62;0.00;0.00;0.62;5.60;3.70;;;19.60;23.30;;;;;;2256705;61;20358;-64
2023/01/23 04:51:09;0.00;0.00;0.62;0.00;0.00;0.62;4.90;3.60;;;19.60;23.30;;;;;;2257515;61;20886;-65
2023/01/23 04:53:53;0.00;0.00;0.62;0.00;0.00;0.62;5.70;5.03;;;19.60;23.40;;;;;;2256905;61;20365;-62
2023/01/23 04:56:40;0.00;0.00;0.62;0.00;0.00;0.62;4.53;3.63;;;19.60;23.40;;;;;;2257205;61;20385;-64
2023/01/23 04:59:27;0.00;0.00;0.62;0.00;0.00;0.62;7.13;4.00;;;19.60;23.40;;;;;;2257275;61;20745;-65
2023/01/23 05:02:12;0.00;0.00;0.62;0.00;0.00;0.62;5.93;4.90;;;19.60;23.40;;;;;;2256587;61;20421;-64
2023/01/23 05:05:00;0.00;0.00;0.62;0.00;0.00;0.62;4.83;3.63;;;19.60;23.40;;;;;;2257121;61;20377;-64
2023/01/23 05:07:45;0.00;0.00;0.62;0.00;0.00;0.62;5.03;3.50;;;19.60;23.40;;;;;;2254389;61;20493;-63
2023/01/23 05:10:32;0.00;0.00;0.62;0.00;0.00;0.62;5.17;3.43;;;19.60;23.40;;;;;;2257936;61;20384;-68
2023/01/23 05:13:24;0.00;0.00;0.62;0.00;0.00;0.62;5.10;3.40;;;19.60;23.40;;;;;;2257177;61;20428;-63
2023/01/23 05:16:09;0.00;0.00;0.62;0.00;0.00;0.62;4.60;3.90;;;19.60;23.40;;;;;;2255830;61;20849;-62
2023/01/23 05:19:14;0.00;0.00;0.62;0.00;0.00;0.62;4.67;3.43;;;19.60;23.40;;;;;;2257987;61;20808;-64
2023/01/23 05:21:59;0.00;0.00;0.62;0.00;0.00;0.62;6.00;3.43;;;19.60;23.40;;;;;;2257808;61;20381;-70
2023/01/23 05:24:45;0.00;0.00;0.62;0.00;0.00;0.62;5.80;4.07;;;19.50;23.30;;;;;;2256607;61;20385;-64
2023/01/23 05:27:29;0.00;0.00;0.62;0.00;0.00;0.62;5.07;3.87;;;19.50;23.30;;;;;;2257487;61;20414;-65
2023/01/23 05:30:21;0.00;0.00;0.62;0.00;0.00;0.62;5.60;4.00;;;19.50;23.30;;;;;;2258309;61;20354;-65
2023/01/23 05:33:07;0.00;0.00;0.62;0.00;0.00;0.62;5.67;4.30;;;19.50;23.30;;;;;;2257693;61;20742;-65
2023/01/23 05:35:57;0.00;0.00;0.62;0.00;0.00;0.62;5.20;4.10;;;19.50;23.30;;;;;;2257781;61;20392;-65
2023/01/23 05:38:41;0.00;0.00;0.62;0.00;0.00;0.62;6.30;4.23;;;19.50;23.30;;;;;;2253949;61;20421;-63
2023/01/23 05:41:26;0.00;0.00;0.62;0.00;0.00;0.62;6.30;4.03;;;19.50;23.80;;;;;;2254723;61;20989;-63
2023/01/23 05:44:40;0.00;0.00;0.62;0.00;0.00;0.62;6.47;4.27;;;19.50;23.30;;;;;;2254262;61;20436;-66
2023/01/23 05:47:35;0.00;0.00;0.62;0.00;0.00;0.62;4.53;3.83;;;19.50;23.30;;;;;;2253852;61;20354;-62
2023/01/23 05:50:22;0.00;0.00;0.62;0.00;0.00;0.62;5.40;4.00;;;19.50;23.30;;;;;;2255006;61;20361;-63
2023/01/23 05:53:07;0.00;0.00;0.62;0.00;0.00;0.62;5.07;3.93;;;19.50;23.30;;;;;;2254775;61;20361;-61
2023/01/23 05:55:54;0.00;0.00;0.62;0.00;0.00;0.62;11.30;5.20;;;19.50;23.40;;;;;;2255312;61;20394;-65
2023/01/23 05:58:40;0.00;0.00;0.62;0.00;0.00;0.62;6.03;3.93;;;19.50;23.40;;;;;;2255126;61;20394;-62
2023/01/23 06:01:35;0.00;0.00;0.62;0.00;0.00;0.62;5.40;3.83;;;19.50;23.40;;;;;;2254545;61;20785;-62
2023/01/23 06:04:40;0.00;0.00;0.62;0.00;0.00;0.62;5.00;4.30;;;19.50;23.40;;;;;;2255187;61;20872;-65
2023/01/23 06:07:36;0.00;0.00;0.62;0.00;0.00;0.62;5.73;4.30;;;19.50;23.40;;;;;;2254448;61;20470;-64
2023/01/23 06:10:25;0.00;0.00;0.62;0.00;0.00;0.62;4.93;3.53;;;19.50;23.40;;;;;;2440618;53;20369;-68
2023/01/23 06:13:09;0.00;0.00;0.62;0.00;0.00;0.62;6.60;4.57;;;19.40;23.30;;;;;;2254964;61;20366;-65
2023/01/23 06:15:55;0.00;0.00;0.62;0.00;0.00;0.62;5.93;4.80;;;19.50;23.40;;;;;;2254449;61;20428;-63
2023/01/23 06:18:41;0.00;0.00;0.62;0.00;0.00;0.62;6.70;4.20;;;19.40;23.30;;;;;;2255491;61;20910;-62
2023/01/23 06:21:28;0.00;0.00;0.62;0.00;0.00;0.62;7.20;4.47;;;19.40;23.40;;;;;;2255320;61;20394;-63
2023/01/23 06:24:13;0.00;0.00;0.62;0.00;0.00;0.62;5.57;4.37;;;19.40;23.90;;;;;;2254478;61;20370;-65
2023/01/23 06:26:58;0.00;0.00;0.62;0.00;0.00;0.62;5.30;4.03;;;19.40;23.30;;;;;;2254458;61;20885;-62
2023/01/23 06:29:43;0.00;0.00;0.62;0.00;0.00;0.62;5.63;4.40;;;19.40;23.30;;;;;;2254755;61;20366;-65
2023/01/23 06:32:28;0.00;0.00;0.62;0.00;0.00;0.62;7.20;4.33;;;19.40;23.30;;;;;;2254693;61;20929;-63
2023/01/23 06:35:12;0.00;0.00;0.62;0.00;0.00;0.62;5.90;4.00;;;19.40;23.30;;;;;;2254886;61;20528;-63
2023/01/23 06:38:01;0.00;0.00;0.62;0.00;0.00;0.62;4.90;3.70;;;19.40;23.80;;;;;;2254286;61;20362;-63
2023/01/23 06:40:46;0.00;0.00;0.62;0.00;0.00;0.62;4.67;3.60;;;19.40;23.30;;;;;;2254738;61;20416;-64
2023/01/23 06:43:56;0.00;0.00;0.62;0.00;0.00;0.62;6.93;4.43;;;19.40;23.40;;;;;;2255198;61;20417;-63
2023/01/23 06:46:44;0.00;0.00;0.62;0.00;0.00;0.62;5.50;4.70;;;19.40;23.40;;;;;;2251296;61;20443;-67
2023/01/23 06:49:29;0.00;0.00;0.62;0.00;0.00;0.62;4.63;4.17;;;19.40;23.40;;;;;;2255133;61;20794;-64
2023/01/23 06:52:13;0.00;0.00;0.62;0.00;0.00;0.62;4.87;3.90;;;19.40;23.40;;;;;;2254511;61;20370;-65
2023/01/23 06:55:01;0.00;0.00;0.62;0.00;0.00;0.62;5.13;4.07;;;19.40;23.40;;;;;;2255050;61;20948;-63
2023/01/23 06:57:46;0.00;0.00;0.62;0.00;0.00;0.62;5.80;4.23;;;19.40;23.40;;;;;;2255407;61;20362;-63
2023/01/23 07:00:33;0.00;0.00;0.62;0.00;0.00;0.62;5.50;4.00;;;19.40;23.40;;;;;;2254053;61;20458;-64
2023/01/23 07:03:19;0.00;0.00;0.62;0.00;0.00;0.62;4.50;3.80;;;19.40;23.40;;;;;;2254546;61;20509;-63
2023/01/23 07:06:06;0.00;0.00;0.62;0.00;0.00;0.62;5.80;3.90;;;19.30;23.30;;;;;;2254771;61;20433;-64
2023/01/23 07:08:50;0.00;0.00;0.62;0.00;0.00;0.62;4.47;3.93;;;19.40;23.40;;;;;;2254475;61;20616;-64
2023/01/23 07:11:38;0.00;0.00;0.62;0.00;0.00;0.62;5.23;4.20;;;19.40;23.40;;;;;;2320723;53;20820;-64
2023/01/23 07:14:25;0.00;0.00;0.62;0.00;0.00;0.62;4.23;3.43;;;19.30;23.30;;;;;;2254571;61;20437;-62
2023/01/23 07:17:11;0.00;0.00;0.62;0.00;0.00;0.62;5.47;4.40;;;19.30;23.30;;;;;;2254792;61;20369;-64
2023/01/23 07:19:56;0.00;0.00;0.62;0.00;0.00;0.62;5.40;3.60;;;19.30;23.30;;;;;;2254990;61;20895;-63
2023/01/23 07:22:40;0.00;0.00;0.62;0.00;0.00;0.62;3.93;3.30;;;19.30;23.30;;;;;;2253983;61;20389;-63
2023/01/23 07:25:25;0.00;0.00;0.62;0.00;0.00;0.62;5.53;4.90;;;19.40;23.40;;;;;;2254976;61;20798;-62
2023/01/23 07:28:12;0.00;0.00;0.62;0.00;0.00;0.62;5.20;4.10;;;19.30;23.30;;;;;;2255484;61;20385;-61
2023/01/23 07:30:58;0.00;0.00;0.62;0.00;0.00;0.62;4.20;3.57;;;19.30;23.30;;;;;;2254476;61;20401;-63
2023/01/23 07:33:42;0.00;0.00;0.62;0.00;0.00;0.62;6.53;4.30;;;19.30;23.30;;;;;;2254855;61;20365;-63
2023/01/23 07:36:27;0.00;0.00;0.62;0.00;0.00;0.62;5.40;4.20;;;19.30;23.30;;;;;;2254783;61;20361;-63
2023/01/23 07:39:12;0.00;0.00;0.62;0.00;0.00;0.62;5.73;4.00;;;19.30;23.30;;;;;;2255563;61;20393;-64
2023/01/23 07:41:56;0.00;0.00;0.62;0.00;0.00;0.62;6.43;4.63;;;19.30;23.40;;;;;;2255107;61;20429;-64
2023/01/23 07:44:46;0.00;0.00;0.62;0.00;0.00;0.62;5.07;3.90;;;19.30;23.30;;;;;;2254014;61;20422;-65
2023/01/23 07:47:31;0.00;0.00;0.62;0.00;0.00;0.62;5.23;3.60;;;19.30;23.30;;;;;;2254906;61;20388;-66
2023/01/23 07:50:17;0.00;0.00;0.62;0.00;0.00;0.62;5.10;3.70;;;19.30;23.40;;;;;;2255532;61;20446;-64
2023/01/23 07:53:02;0.00;0.00;0.62;0.00;0.00;0.62;4.97;3.83;;;19.30;23.30;;;;;;2254500;61;20764;-68
2023/01/23 07:55:47;0.00;0.00;0.62;0.00;0.00;0.62;4.13;3.70;;;19.30;23.40;;;;;;2254877;61;20432;-65
2023/01/23 07:58:32;0.00;0.00;0.62;0.00;0.00;0.62;4.93;3.80;;;19.30;23.40;;;;;;2254569;61;20420;-63
2023/01/23 08:01:18;0.00;0.00;0.62;0.00;0.00;0.62;4.30;3.70;;;19.30;23.40;;;;;;2255213;61;20377;-65
2023/01/23 08:04:03;0.00;0.00;0.62;0.00;0.00;0.62;4.77;3.93;;;19.30;23.40;;;;;;2254981;61;20804;-68
2023/01/23 08:06:48;0.00;0.00;0.62;0.00;0.00;0.62;5.60;4.13;;;19.30;23.40;;;;;;2253892;61;20983;-65
2023/01/23 08:09:33;0.00;0.00;0.62;0.00;0.00;0.62;6.23;4.80;;;19.30;23.40;;;;;;2255199;61;20370;-65
2023/01/23 08:12:17;0.00;0.00;0.62;0.00;0.00;0.62;5.50;4.47;;;19.30;23.40;;;;;;2255103;61;20400;-66
2023/01/23 08:15:02;0.00;0.00;0.62;0.00;0.00;0.62;5.07;4.37;;;19.30;23.40;;;;;;2254156;61;20782;-65
2023/01/23 08:17:48;0.00;0.00;0.62;0.00;0.00;0.62;5.90;4.30;;;19.30;23.40;;;;;;2254707;61;20416;-65
2023/01/23 08:20:33;0.00;0.00;0.62;0.00;0.00;0.62;5.40;4.00;;;19.30;23.40;;;;;;2255137;61;20447;-67
2023/01/23 08:23:18;0.00;0.00;0.62;0.00;0.00;0.62;5.70;4.70;;;19.30;23.50;;;;;;2254778;61;20409;-69
2023/01/23 08:26:07;0.00;0.00;0.62;0.00;0.00;0.62;6.53;4.87;;;19.30;23.50;;;;;;2254838;61;20382;-67
2023/01/23 08:28:52;0.00;0.00;0.62;0.00;0.00;0.62;7.13;4.73;;;19.30;23.40;;;;;;2254149;61;20362;-67
2023/01/23 08:31:38;0.00;0.00;0.62;0.00;0.00;0.62;5.27;4.77;;;19.30;23.40;;;;;;2254992;61;20890;-65
2023/01/23 08:34:25;0.00;0.00;0.62;0.00;0.00;0.62;6.83;4.63;;;19.30;23.40;;;;;;2255431;61;20946;-69
2023/01/23 08:37:09;0.00;0.00;0.62;0.00;0.00;0.62;5.80;4.40;;;19.30;23.40;;;;;;2254794;61;20382;-69
2023/01/23 08:39:54;0.00;0.00;0.62;0.00;0.00;0.62;7.20;4.60;;;19.30;23.40;;;;;;2255792;61;20384;-71
2023/01/23 08:42:38;0.00;0.00;0.62;0.00;0.00;0.62;5.70;5.10;;;19.30;23.40;;;;;;2254981;61;20457;-66
2023/01/23 08:45:24;0.00;0.00;0.62;0.00;0.00;0.62;5.93;4.70;;;19.20;23.40;;;;;;2254855;61;20386;-68
2023/01/23 08:48:09;0.00;0.00;0.62;0.00;0.00;0.62;6.40;5.00;;;19.30;24.00;;;;;;2254655;61;20370;-67
2023/01/23 08:51:01;0.00;0.00;0.62;0.00;0.00;0.62;6.83;5.27;;;19.30;23.50;;;;;;2254179;61;20366;-66
2023/01/23 08:53:45;0.00;0.00;0.62;0.00;0.00;0.62;6.47;4.50;;;19.30;23.50;;;;;;2254543;61;20370;-67
2023/01/23 08:56:30;0.00;0.00;0.62;0.00;0.00;0.62;7.47;5.20;;;19.30;23.60;;;;;;2254439;61;20768;-67
2023/01/23 08:59:15;0.00;0.00;0.62;0.00;0.00;0.62;6.40;5.00;;;19.30;23.60;;;;;;2253738;61;20388;-67
2023/01/23 09:02:01;0.00;0.00;0.62;0.00;0.00;0.62;5.77;4.73;;;19.20;23.60;;;;;;2254650;61;20421;-67
2023/01/23 09:04:27;0.00;0.00;0.62;0.00;0.00;0.62;5.63;4.60;;;19.30;23.70;;;;;;2253982;61;21017;-67
2023/01/23 09:07:13;0.00;0.00;0.62;0.00;0.00;0.62;6.70;4.83;;;19.30;23.70;;;;;;2253538;61;20385;-69
2023/01/23 09:09:57;0.00;0.00;0.62;0.00;0.00;0.62;7.00;5.20;;;19.30;23.70;;;;;;2308106;53;20436;-65
2023/01/23 09:12:42;0.00;0.00;0.62;0.00;0.00;0.62;7.17;5.20;;;19.30;23.70;;;;;;2517139;53;20555;-65
2023/01/23 09:15:27;0.00;0.00;0.62;0.00;0.00;0.62;7.33;6.00;;;19.30;23.70;;;;;;2250288;61;20392;-66
2023/01/23 09:18:12;0.00;0.00;0.62;0.00;0.00;0.62;5.90;4.90;;;19.30;23.70;;;;;;2250609;61;20861;-69
2023/01/23 09:20:57;0.00;0.00;0.62;0.00;0.00;0.62;6.63;4.97;;;19.30;23.80;;;;;;2249757;61;20362;-71
2023/01/23 09:23:43;0.00;0.00;0.62;0.00;0.00;0.62;7.40;5.50;;;19.30;23.70;;;;;;2250957;61;20367;-70
2023/01/23 09:26:28;0.00;0.00;0.62;0.00;0.00;0.62;9.20;5.90;;;19.30;23.70;;;;;;2251329;61;20547;-69
2023/01/23 09:29:14;0.00;0.00;0.62;0.00;0.00;0.62;7.40;5.60;;;19.30;23.60;;;;;;2250617;61;20401;-69
2023/01/23 09:31:59;0.00;0.00;0.62;0.00;0.00;0.62;6.70;5.90;;;19.30;23.60;;;;;;2250734;61;20491;-68
2023/01/23 09:34:43;0.00;0.00;0.62;0.00;0.00;0.62;5.73;5.13;;;19.30;23.50;;;;;;2250978;61;20429;-69
2023/01/23 09:37:58;0.00;0.00;0.62;0.00;0.00;0.62;7.57;6.07;;;19.30;24.10;;;;;;2250767;61;20915;-66
2023/01/23 09:40:44;0.00;0.00;0.62;0.00;0.00;0.62;7.10;5.00;;;19.30;23.60;;;;;;2251419;61;20405;-65
2023/01/23 09:43:40;0.00;0.00;0.62;0.00;0.00;0.62;5.03;4.53;;;19.30;23.70;;;;;;2250276;61;20826;-65
2023/01/23 09:46:31;0.00;0.00;0.62;0.00;0.00;0.62;5.70;4.33;;;19.30;23.70;;;;;;2250862;61;20413;-65
2023/01/23 09:49:24;0.00;0.00;0.62;0.00;0.00;0.62;5.60;4.20;;;19.30;23.80;;;;;;2251702;61;20362;-64
2023/01/23 09:52:15;0.00;0.00;0.62;0.00;0.00;0.62;4.80;4.17;;;19.30;23.90;;;;;;2251061;61;20725;-66
2023/01/23 09:55:14;0.00;0.00;0.62;0.00;0.00;0.62;5.43;4.13;;;19.30;24.10;;;;;;2250975;61;20776;-66
2023/01/23 09:58:02;0.00;0.00;0.62;0.00;0.00;0.62;5.60;4.27;;;19.40;24.00;;;;;;2250478;61;20418;-70
2023/01/23 10:00:49;0.00;0.00;0.62;0.00;0.00;0.62;5.23;4.03;;;19.40;24.00;;;;;;2250883;61;20367;-70
2023/01/23 10:03:34;0.00;0.00;0.62;0.00;0.00;0.62;4.23;3.60;;;19.40;24.00;;;;;;2251440;61;20425;-67
2023/01/23 10:06:22;0.00;0.00;0.62;0.00;0.00;0.62;6.20;4.37;;;19.40;23.90;;;;;;2250308;61;20382;-66
2023/01/23 10:09:29;0.00;0.00;0.62;0.00;0.00;0.62;5.63;4.27;;;19.40;24.00;;;;;;2253712;61;20895;-67
2023/01/23 10:12:26;0.00;0.00;0.62;0.00;0.00;0.62;4.90;3.87;;;19.40;24.00;;;;;;2254438;61;20933;-65
2023/01/23 10:15:27;0.00;0.00;0.62;0.00;0.00;0.62;4.80;4.10;;;19.40;24.00;;;;;;2255594;61;20981;-65
2023/01/23 10:18:21;0.00;0.00;0.62;0.00;0.00;0.62;4.50;3.70;;;19.50;24.20;;;;;;2255451;61;20365;-65
2023/01/23 10:21:19;0.00;0.00;0.62;0.00;0.00;0.62;4.67;3.50;;;19.50;24.10;;;;;;2254693;61;20366;-67
2023/01/23 10:24:17;0.00;0.00;0.62;0.00;0.00;0.62;4.27;3.30;;;19.50;24.20;;;;;;2254968;61;20381;-64
2023/01/23 10:27:17;0.00;0.00;0.62;0.00;0.00;0.62;4.27;3.37;;;19.50;24.70;;;;;;2254189;61;20365;-63
2023/01/23 10:30:17;0.00;0.00;0.62;0.00;0.00;0.62;4.17;3.20;;;19.50;24.10;;;;;;2256088;61;20398;-65
2023/01/23 10:33:12;0.00;0.00;0.62;0.00;0.00;0.62;4.20;3.20;;;19.50;24.20;;;;;;2255671;61;20788;-67
2023/01/23 10:39:19;0.00;0.00;0.62;0.00;0.00;0.62;3.70;3.20;;;19.50;24.20;;;;;;2260719;61;20388;-68
2023/01/23 10:42:09;0.00;0.00;0.62;0.00;0.00;0.62;3.97;2.97;;;19.50;24.20;;;;;;2258939;61;20373;-65
2023/01/23 10:44:54;0.00;0.00;0.62;0.00;0.00;0.62;4.53;3.53;;;19.60;24.30;;;;;;2259551;61;20457;-63
2023/01/23 10:47:44;0.00;0.00;0.62;0.00;0.00;0.62;3.67;3.37;;;19.60;24.30;;;;;;2259241;61;20357;-69
2023/01/23 10:50:38;0.00;0.00;0.62;0.00;0.00;0.62;4.37;3.40;;;19.60;24.20;;;;;;2259535;61;20798;-67
2023/01/23 10:53:24;0.00;0.00;0.62;0.00;0.00;0.62;3.90;2.83;;;19.60;24.20;;;;;;2258776;61;20369;-67
2023/01/23 10:56:15;0.00;0.00;0.62;0.00;0.00;0.62;4.43;3.33;;;19.60;24.20;;;;;;2259051;61;20384;-68
2023/01/23 10:59:02;0.00;0.00;0.62;0.00;0.00;0.62;3.73;3.00;;;19.60;24.20;;;;;;2260017;61;20452;-65
2023/01/23 11:02:00;0.00;0.00;0.62;0.00;0.00;0.62;4.23;3.17;;;19.70;24.20;;;;;;2259136;61;20421;-66
2023/01/23 11:04:48;0.00;0.00;0.62;0.00;0.00;0.62;3.70;2.70;;;19.70;24.30;;;;;;2259240;61;20800;-65
2023/01/23 11:07:37;0.00;0.00;0.62;0.00;0.00;0.62;3.70;2.93;;;19.70;24.30;;;;;;2258938;61;20818;-65